createdAt,value
2023-02-01T00:00:56.884Z,2.92
2023-02-01T00:03:45.142Z,2.83
2023-02-01T00:06:33.405Z,2.78
2023-02-01T00:09:21.850Z,2.25
2023-02-01T00:12:10.056Z,3.28
2023-02-01T00:14:59.787Z,2.40
2023-02-01T00:17:48.054Z,3.25
2023-02-01T00:20:36.301Z,2.67
2023-02-01T00:23:24.648Z,2.72
2023-02-01T00:26:16.636Z,3.03
2023-02-01T00:29:06.925Z,2.90
2023-02-01T00:31:56.518Z,2.70
2023-02-01T00:34:44.818Z,2.80
2023-02-01T00:37:33.028Z,3.60
2023-02-01T00:40:21.614Z,2.60
2023-02-01T00:43:10.040Z,2.60
2023-02-01T00:45:58.208Z,3.10
2023-02-01T00:48:47.837Z,2.95
2023-02-01T00:51:36.024Z,2.28
2023-02-01T00:54:24.628Z,2.95
2023-02-01T00:57:12.804Z,2.92
2023-02-01T01:00:01.013Z,2.63
2023-02-01T01:02:49.248Z,2.95
2023-02-01T01:05:38.807Z,3.00
2023-02-01T01:08:27.173Z,2.33
2023-02-01T01:11:18.847Z,2.70
2023-02-01T01:14:09.197Z,2.30
2023-02-01T01:16:57.474Z,2.72
2023-02-01T01:19:45.658Z,3.72
2023-02-01T01:22:35.218Z,2.85
2023-02-01T01:25:23.395Z,2.85
2023-02-01T01:28:11.615Z,2.42
2023-02-01T01:30:59.921Z,2.30
2023-02-01T01:33:51.063Z,2.72
2023-02-01T01:36:39.261Z,2.58
2023-02-01T01:39:28.867Z,2.83
2023-02-01T01:42:17.080Z,2.53
2023-02-01T01:45:07.780Z,2.67
2023-02-01T01:47:58.075Z,3.10
2023-02-01T01:50:50.531Z,2.88
2023-02-01T01:53:44.824Z,2.40
2023-02-01T01:56:35.972Z,3.53
2023-02-01T01:59:25.938Z,2.30
2023-02-01T02:02:14.248Z,2.92
2023-02-01T02:05:02.840Z,2.90
2023-02-01T02:07:53.688Z,2.58
2023-02-01T02:10:59.700Z,2.75
2023-02-01T02:13:52.679Z,2.85
2023-02-01T02:17:09.101Z,3.72
2023-02-01T02:20:26.986Z,2.35
2023-02-01T02:23:41.479Z,2.60
2023-02-01T02:26:40.691Z,2.58
2023-02-01T02:30:03.403Z,2.65
2023-02-01T02:33:31.016Z,3.33
2023-02-01T02:36:35.174Z,3.00
2023-02-01T02:39:31.703Z,2.45
2023-02-01T02:42:42.984Z,2.92
2023-02-01T02:48:46.801Z,2.92
2023-02-01T02:52:00.121Z,2.58
2023-02-01T02:54:52.853Z,2.72
2023-02-01T02:58:01.665Z,3.30
2023-02-01T03:01:08.006Z,2.85
2023-02-01T03:04:09.857Z,3.20
2023-02-01T03:06:59.527Z,2.80
2023-02-01T03:09:49.519Z,3.05
2023-02-01T03:12:59.716Z,3.90
2023-02-01T03:15:56.367Z,3.53
2023-02-01T03:18:51.701Z,2.97
2023-02-01T03:21:43.581Z,2.75
2023-02-01T03:24:39.259Z,3.38
2023-02-01T03:27:35.569Z,2.63
2023-02-01T03:30:26.922Z,3.63
2023-02-01T03:33:23.624Z,2.78
2023-02-01T03:36:20.250Z,2.80
2023-02-01T03:39:14.595Z,3.88
2023-02-01T03:42:06.421Z,2.97
2023-02-01T03:45:00.866Z,3.00
2023-02-01T03:47:53.197Z,4.82
2023-02-01T03:50:46.915Z,2.50
2023-02-01T03:53:38.041Z,2.78
2023-02-01T03:56:29.255Z,3.20
2023-02-01T04:02:06.898Z,2.65
2023-02-01T04:04:55.204Z,2.90
2023-02-01T04:07:43.616Z,2.65
2023-02-01T04:10:31.805Z,3.30
2023-02-01T04:13:20.045Z,3.05
2023-02-01T04:16:09.786Z,2.92
2023-02-01T04:18:58.641Z,4.35
2023-02-01T04:21:46.941Z,3.85
2023-02-01T04:24:35.181Z,2.80
2023-02-01T04:30:12.674Z,3.35
2023-02-01T04:33:04.594Z,3.22
2023-02-01T04:35:52.813Z,3.20
2023-02-01T04:38:40.996Z,2.75
2023-02-01T04:41:30.025Z,3.38
2023-02-01T04:44:20.048Z,3.22
2023-02-01T04:47:08.294Z,3.38
2023-02-01T04:49:57.845Z,3.55
2023-02-01T04:52:47.197Z,3.35
2023-02-01T04:55:35.419Z,3.80
2023-02-01T04:58:24.399Z,3.20
2023-02-01T05:01:12.678Z,2.83
2023-02-01T05:04:00.954Z,2.70
2023-02-01T05:06:50.473Z,3.28
2023-02-01T05:09:38.696Z,3.45
2023-02-01T05:12:44.343Z,4.65
2023-02-01T05:15:33.086Z,2.95
2023-02-01T05:18:21.430Z,3.72
2023-02-01T05:21:09.940Z,3.10
2023-02-01T05:24:13.807Z,3.78
2023-02-01T05:27:02.029Z,3.50
2023-02-01T05:29:50.239Z,2.85
2023-02-01T05:32:38.652Z,3.40
2023-02-01T05:35:26.883Z,3.20
2023-02-01T05:38:15.482Z,4.35
2023-02-01T05:41:05.204Z,3.40
2023-02-01T05:43:53.440Z,3.70
2023-02-01T05:46:41.706Z,3.15
2023-02-01T05:49:30.087Z,3.67
2023-02-01T05:52:20.337Z,3.33
2023-02-01T05:55:09.373Z,3.33
2023-02-01T05:57:58.967Z,3.95
2023-02-01T06:00:47.183Z,3.05
2023-02-01T06:03:35.472Z,2.95
2023-02-01T06:06:23.728Z,4.13
2023-02-01T06:09:11.937Z,3.15
2023-02-01T06:12:00.463Z,3.35
2023-02-01T06:14:49.993Z,2.50
2023-02-01T06:17:38.701Z,3.58
2023-02-01T06:20:27.042Z,3.50
2023-02-01T06:23:15.230Z,4.18
2023-02-01T06:26:05.790Z,3.00
2023-02-01T06:28:54.275Z,3.28
2023-02-01T06:31:45.024Z,3.38
2023-02-01T06:34:33.733Z,3.30
2023-02-01T06:37:22.250Z,3.42
2023-02-01T06:40:11.664Z,4.85
2023-02-01T06:43:00.294Z,3.10
2023-02-01T06:45:48.490Z,3.60
2023-02-01T06:48:38.066Z,3.47
2023-02-01T06:51:28.203Z,3.88
2023-02-01T06:54:16.431Z,3.50
2023-02-01T06:57:05.085Z,3.53
2023-02-01T06:59:53.302Z,3.08
2023-02-01T07:02:41.502Z,3.30
2023-02-01T07:05:31.087Z,3.03
2023-02-01T07:08:19.259Z,2.97
2023-02-01T07:11:09.689Z,3.38
2023-02-01T07:13:57.946Z,3.53
2023-02-01T07:16:46.143Z,3.60
2023-02-01T07:19:34.498Z,3.45
2023-02-01T07:22:24.111Z,2.60
2023-02-01T07:25:12.337Z,3.17
2023-02-01T07:28:00.545Z,3.42
2023-02-01T07:30:51.856Z,3.55
2023-02-01T07:33:40.501Z,2.95
2023-02-01T07:36:28.739Z,3.38
2023-02-01T07:39:18.296Z,3.17
2023-02-01T07:42:07.476Z,3.05
2023-02-01T07:44:55.709Z,2.92
2023-02-01T07:47:43.987Z,2.85
2023-02-01T07:50:32.668Z,2.85
2023-02-01T07:53:20.881Z,2.80
2023-02-01T07:56:14.968Z,3.10
2023-02-01T07:59:03.301Z,3.10
2023-02-01T08:01:51.514Z,3.70
2023-02-01T08:04:39.784Z,3.58
2023-02-01T08:07:27.989Z,3.03
2023-02-01T08:10:16.594Z,3.28
2023-02-01T08:13:06.199Z,2.15
2023-02-01T08:16:08.014Z,3.20
2023-02-01T08:18:56.445Z,2.35
2023-02-01T08:21:44.731Z,2.60
2023-02-01T08:24:32.973Z,3.25
2023-02-01T08:27:21.211Z,3.83
2023-02-01T08:30:14.335Z,3.25
2023-02-01T08:33:03.075Z,2.90
2023-02-01T08:35:51.402Z,3.03
2023-02-01T08:38:41.475Z,3.70
2023-02-01T08:41:32.096Z,3.50
2023-02-01T08:44:20.333Z,3.85
2023-02-01T08:47:09.898Z,3.53
2023-02-01T08:49:58.159Z,3.92
2023-02-01T08:52:46.525Z,3.88
2023-02-01T08:55:34.722Z,2.30
2023-02-01T08:58:22.992Z,2.50
2023-02-01T09:01:13.753Z,2.30
2023-02-01T09:04:03.430Z,2.60
2023-02-01T09:06:51.652Z,2.70
2023-02-01T09:09:40.170Z,2.50
2023-02-01T09:12:28.864Z,2.63
2023-02-01T09:15:17.135Z,2.58
2023-02-01T09:18:05.578Z,2.78
2023-02-01T09:20:55.147Z,2.83
2023-02-01T09:23:43.503Z,2.17
2023-02-01T09:26:32.989Z,1.77
2023-02-01T09:29:21.428Z,1.83
2023-02-01T09:32:09.791Z,1.25
2023-02-01T09:34:58.117Z,1.60
2023-02-01T09:37:47.688Z,1.70
2023-02-01T09:40:37.049Z,2.05
2023-02-01T09:43:41.164Z,2.10
2023-02-01T09:46:31.926Z,1.80
2023-02-01T09:49:26.122Z,1.13
2023-02-01T09:52:15.638Z,2.00
2023-02-01T09:55:12.342Z,1.90
2023-02-01T09:58:04.382Z,2.30
2023-02-01T10:00:54.985Z,2.20
2023-02-01T10:03:43.346Z,1.55
2023-02-01T10:06:45.872Z,2.97
2023-02-01T10:09:45.584Z,2.47
2023-02-01T10:13:07.296Z,1.83
2023-02-01T10:16:06.504Z,2.30
2023-02-01T10:19:04.682Z,3.05
2023-02-01T10:21:59.991Z,2.60
2023-02-01T10:24:53.881Z,2.80
2023-02-01T10:27:42.632Z,2.42
2023-02-01T10:30:35.828Z,3.20
2023-02-01T10:33:27.255Z,2.60
2023-02-01T10:36:19.343Z,3.40
2023-02-01T10:39:08.926Z,3.30
2023-02-01T10:41:58.165Z,3.58
2023-02-01T10:44:49.036Z,4.28
2023-02-01T10:47:38.624Z,3.33
2023-02-01T10:50:37.267Z,3.80
2023-02-01T10:53:33.310Z,3.53
2023-02-01T10:56:25.370Z,3.05
2023-02-01T10:59:18.790Z,2.97
2023-02-01T11:02:21.313Z,2.65
2023-02-01T11:05:13.396Z,1.95
2023-02-01T11:08:01.741Z,2.85
2023-02-01T11:10:59.944Z,2.47
2023-02-01T11:13:55.296Z,3.10
2023-02-01T11:16:50.311Z,2.50
2023-02-01T11:19:39.587Z,2.45
2023-02-01T11:22:30.729Z,2.55
2023-02-01T11:25:19.786Z,3.33
2023-02-01T11:28:08.138Z,2.70
2023-02-01T11:31:00.419Z,3.13
2023-02-01T11:33:52.930Z,2.33
2023-02-01T11:36:42.128Z,2.33
2023-02-01T11:39:34.749Z,2.72
2023-02-01T11:42:23.005Z,2.83
2023-02-01T11:45:22.006Z,2.78
2023-02-01T11:48:15.026Z,2.58
2023-02-01T11:51:24.116Z,3.60
2023-02-01T11:54:27.657Z,2.50
2023-02-01T11:57:35.481Z,2.65
2023-02-01T12:00:39.636Z,2.63
2023-02-01T12:04:07.545Z,2.63
2023-02-01T12:06:58.626Z,2.75
2023-02-01T12:12:52.728Z,2.67
2023-02-01T12:15:53.088Z,2.75
2023-02-01T12:18:59.368Z,2.60
2023-02-01T12:21:59.078Z,2.33
2023-02-01T12:25:23.125Z,2.13
2023-02-01T12:28:35.566Z,2.60
2023-02-01T12:31:48.400Z,1.92
2023-02-01T12:35:02.212Z,2.08
2023-02-01T12:38:03.250Z,1.77
2023-02-01T12:41:04.452Z,3.78
2023-02-01T12:43:58.311Z,2.13
2023-02-01T12:46:51.206Z,1.65
2023-02-01T12:49:49.797Z,1.77
2023-02-01T12:52:42.273Z,1.70
2023-02-01T12:55:36.114Z,1.90
2023-02-01T12:58:29.332Z,2.13
2023-02-01T13:01:22.791Z,2.10
2023-02-01T13:04:18.963Z,1.75
2023-02-01T13:07:11.765Z,2.13
2023-02-01T13:10:05.505Z,1.98
2023-02-01T13:12:58.660Z,2.38
2023-02-01T13:15:51.796Z,3.20
2023-02-01T13:18:45.679Z,2.03
2023-02-01T13:21:38.761Z,1.45
2023-02-01T13:24:39.002Z,2.05
2023-02-01T13:27:31.267Z,2.23
2023-02-01T13:30:25.652Z,2.08
2023-02-01T13:33:54.306Z,2.00
2023-02-01T13:37:07.059Z,2.40
2023-02-01T13:40:11.646Z,2.35
2023-02-01T13:43:03.058Z,2.30
2023-02-01T13:45:53.964Z,2.75
2023-02-01T13:48:48.693Z,3.00
2023-02-01T13:51:42.992Z,2.75
2023-02-01T13:54:35.119Z,2.60
2023-02-01T13:57:38.950Z,2.78
2023-02-01T14:00:31.858Z,2.80
2023-02-01T14:03:22.852Z,2.83
2023-02-01T14:06:38.199Z,2.50
2023-02-01T14:09:39.702Z,2.75
2023-02-01T14:12:49.509Z,2.97
2023-02-01T14:15:38.733Z,3.95
2023-02-01T14:18:51.496Z,4.03
2023-02-01T14:21:49.846Z,3.88
2023-02-01T14:24:40.809Z,4.43
2023-02-01T14:27:32.297Z,4.28
2023-02-01T14:30:22.066Z,3.85
2023-02-01T14:33:23.177Z,4.00
2023-02-01T14:36:15.145Z,3.40
2023-02-01T14:39:05.319Z,2.63
2023-02-01T14:42:02.233Z,2.55
2023-02-01T14:44:59.879Z,2.30
2023-02-01T14:47:49.711Z,2.60
2023-02-01T14:50:42.108Z,2.00
2023-02-01T14:53:35.273Z,2.35
2023-02-01T14:56:23.826Z,1.70
2023-02-01T14:59:17.954Z,1.48
2023-02-01T15:02:22.505Z,1.10
2023-02-01T15:05:26.260Z,1.05
2023-02-01T15:08:19.917Z,1.13
2023-02-01T15:11:12.992Z,1.30
2023-02-01T15:14:01.670Z,1.17
2023-02-01T15:16:54.810Z,0.70
2023-02-01T15:19:55.551Z,1.08
2023-02-01T15:22:53.474Z,0.95
2023-02-01T15:25:41.997Z,1.00
2023-02-01T15:28:30.318Z,0.90
2023-02-01T15:31:34.832Z,0.60
2023-02-01T15:34:24.572Z,0.40
2023-02-01T15:37:16.669Z,0.50
2023-02-01T15:40:22.809Z,0.40
2023-02-01T15:43:14.772Z,0.38
2023-02-01T15:46:06.356Z,1.50
2023-02-01T15:48:56.327Z,2.00
2023-02-01T15:51:48.572Z,0.82
2023-02-01T15:54:45.284Z,0.73
2023-02-01T15:57:37.027Z,0.65
2023-02-01T16:00:28.805Z,0.98
2023-02-01T16:03:30.021Z,0.75
2023-02-01T16:06:35.184Z,0.80
2023-02-01T16:09:28.290Z,0.75
2023-02-01T16:12:31.061Z,0.93
2023-02-01T16:15:19.318Z,1.00
2023-02-01T16:18:09.163Z,0.93
2023-02-01T16:20:57.417Z,0.80
2023-02-01T16:23:45.821Z,0.98
2023-02-01T16:26:36.279Z,0.95
2023-02-01T16:29:24.874Z,1.10
2023-02-01T16:32:19.621Z,1.00
2023-02-01T16:35:15.618Z,1.08
2023-02-01T16:38:09.477Z,1.30
2023-02-01T16:41:00.269Z,1.40
2023-02-01T16:43:52.185Z,1.60
2023-02-01T16:46:43.705Z,1.58
2023-02-01T16:49:31.989Z,1.38
2023-02-01T16:52:23.359Z,1.33
2023-02-01T16:55:15.222Z,1.92
2023-02-01T16:58:03.411Z,1.38
2023-02-01T17:00:53.421Z,1.63
2023-02-01T17:03:42.077Z,1.83
2023-02-01T17:06:30.761Z,0.95
2023-02-01T17:09:18.963Z,1.10
2023-02-01T17:12:07.505Z,1.33
2023-02-01T17:14:55.847Z,1.00
2023-02-01T17:17:45.817Z,1.55
2023-02-01T17:20:34.574Z,1.40
2023-02-01T17:23:22.855Z,1.15
2023-02-01T17:26:11.152Z,1.13
2023-02-01T17:28:59.396Z,1.75
2023-02-01T17:31:49.944Z,1.17
2023-02-01T17:34:39.525Z,2.45
2023-02-01T17:37:33.759Z,1.40
2023-02-01T17:43:15.014Z,1.90
2023-02-01T17:46:06.735Z,1.90
2023-02-01T17:48:55.512Z,1.83
2023-02-01T17:51:45.128Z,1.77
2023-02-01T17:54:33.604Z,2.20
2023-02-01T17:57:21.914Z,2.05
2023-02-01T18:00:13.699Z,1.90
2023-02-01T18:03:02.476Z,2.40
2023-02-01T18:05:53.521Z,2.40
2023-02-01T18:08:43.585Z,2.22
2023-02-01T18:11:33.622Z,2.13
2023-02-01T18:14:21.856Z,1.25
2023-02-01T18:17:10.233Z,1.70
2023-02-01T18:19:58.683Z,1.23
2023-02-01T18:22:48.704Z,1.38
2023-02-01T18:25:39.645Z,1.80
2023-02-01T18:28:27.908Z,1.00
2023-02-01T18:31:23.268Z,1.00
2023-02-01T18:34:16.938Z,0.75
2023-02-01T18:37:05.181Z,0.65
2023-02-01T18:39:53.410Z,1.02
2023-02-01T18:42:43.365Z,0.70
2023-02-01T18:45:35.897Z,1.10
2023-02-01T18:48:24.480Z,0.85
2023-02-01T18:51:13.817Z,0.80
2023-02-01T18:54:02.220Z,1.25
2023-02-01T18:56:50.483Z,2.05
2023-02-01T18:59:40.095Z,1.50
2023-02-01T19:02:28.664Z,1.80
2023-02-01T19:05:17.629Z,2.00
2023-02-01T19:08:06.379Z,1.98
2023-02-01T19:10:55.344Z,2.13
2023-02-01T19:13:43.612Z,1.80
2023-02-01T19:16:33.966Z,2.30
2023-02-01T19:19:22.152Z,2.30
2023-02-01T19:22:10.410Z,2.40
2023-02-01T19:24:58.971Z,2.85
2023-02-01T19:27:47.819Z,1.90
2023-02-01T19:30:36.112Z,1.60
2023-02-01T19:33:25.717Z,1.52
2023-02-01T19:36:13.972Z,1.13
2023-02-01T19:39:02.208Z,2.15
2023-02-01T19:41:50.424Z,1.50
2023-02-01T19:44:39.033Z,1.38
2023-02-01T19:47:27.253Z,1.63
2023-02-01T19:50:20.640Z,1.48
2023-02-01T19:53:09.296Z,1.02
2023-02-01T19:55:57.972Z,1.60
2023-02-01T19:58:46.243Z,0.75
2023-02-01T20:01:34.516Z,0.70
2023-02-01T20:04:23.449Z,1.38
2023-02-01T20:07:13.208Z,1.00
2023-02-01T20:10:01.430Z,0.65
2023-02-01T20:12:50.205Z,1.40
2023-02-01T20:15:38.390Z,0.55
2023-02-01T20:18:26.897Z,1.23
2023-02-01T20:21:15.345Z,1.02
2023-02-01T20:24:05.544Z,1.00
2023-02-01T20:26:54.918Z,0.70
2023-02-01T20:29:43.719Z,0.63
2023-02-01T20:32:31.955Z,0.95
2023-02-01T20:35:20.557Z,1.00
2023-02-01T20:38:08.790Z,3.08
2023-02-01T20:41:05.048Z,1.40
2023-02-01T20:43:54.140Z,1.17
2023-02-01T20:46:42.513Z,1.15
2023-02-01T20:49:30.777Z,1.73
2023-02-01T20:52:19.003Z,1.35
2023-02-01T20:55:08.107Z,1.35
2023-02-01T20:58:01.421Z,1.25
2023-02-01T21:00:49.699Z,1.23
2023-02-01T21:03:38.288Z,1.77
2023-02-01T21:06:26.543Z,1.60
2023-02-01T21:09:15.204Z,1.52
2023-02-01T21:12:03.468Z,2.42
2023-02-01T21:14:55.287Z,2.00
2023-02-01T21:17:43.501Z,2.30
2023-02-01T21:20:32.339Z,2.08
2023-02-01T21:23:21.047Z,3.15
2023-02-01T21:26:09.487Z,2.42
2023-02-01T21:28:57.816Z,1.80
2023-02-01T21:31:47.413Z,1.95
2023-02-01T21:34:36.623Z,2.17
2023-02-01T21:37:25.729Z,1.50
2023-02-01T21:40:14.717Z,1.65
2023-02-01T21:43:02.947Z,2.20
2023-02-01T21:45:51.604Z,1.38
2023-02-01T21:49:04.365Z,2.10
2023-02-01T21:51:50.332Z,2.25
2023-02-01T21:54:38.839Z,2.00
2023-02-01T21:57:27.438Z,2.40
2023-02-01T22:00:16.618Z,2.42
2023-02-01T22:03:04.920Z,1.83
2023-02-01T22:05:54.486Z,2.53
2023-02-01T22:08:42.705Z,2.38
2023-02-01T22:11:31.138Z,2.80
2023-02-01T22:14:19.586Z,2.35
2023-02-01T22:17:08.217Z,2.20
2023-02-01T22:19:56.510Z,2.08
2023-02-01T22:22:49.166Z,2.72
2023-02-01T22:25:37.838Z,2.33
2023-02-01T22:28:31.985Z,2.20
2023-02-01T22:31:22.210Z,2.30
2023-02-01T22:34:11.769Z,2.88
2023-02-01T22:37:00.044Z,2.50
2023-02-01T22:39:49.612Z,3.10
2023-02-01T22:42:38.047Z,2.30
2023-02-01T22:45:26.450Z,1.67
2023-02-01T22:48:14.707Z,2.15
2023-02-01T22:51:03.576Z,2.33
2023-02-01T22:53:57.258Z,2.05
2023-02-01T22:56:46.947Z,3.08
2023-02-01T22:59:35.159Z,2.60
2023-02-01T23:02:23.408Z,1.88
2023-02-01T23:05:11.745Z,1.90
2023-02-01T23:07:59.972Z,2.28
2023-02-01T23:10:48.135Z,2.83
2023-02-01T23:13:39.077Z,2.30
2023-02-01T23:16:28.357Z,2.05
2023-02-01T23:19:16.638Z,2.88
2023-02-01T23:22:04.868Z,2.60
2023-02-01T23:24:53.095Z,2.05
2023-02-01T23:27:41.756Z,2.00
2023-02-01T23:30:31.344Z,2.15
2023-02-01T23:33:22.667Z,2.20
2023-02-01T23:39:00.415Z,1.35
2023-02-01T23:41:48.619Z,2.38
2023-02-01T23:44:36.872Z,2.75
2023-02-01T23:47:26.503Z,2.63
2023-02-01T23:50:14.771Z,2.67
2023-02-01T23:53:02.978Z,2.50
2023-02-01T23:55:53.634Z,2.42
2023-02-01T23:58:42.381Z,2.97
